sensor_id;sensor_type;location;lat;lon;timestamp;pressure;altitude;pressure_sealevel;temperature;humidity
12077;BME280;12420;42.676;23.262;2023-04-08T00:00:44;94632.72;;;7.09;82.97
12077;BME280;12420;42.676;23.262;2023-04-08T00:03:12;94637.75;;;7.05;83.48
12077;BME280;12420;42.676;23.262;2023-04-08T00:05:39;94643.44;;;7.24;82.98
12077;BME280;12420;42.676;23.262;2023-04-08T00:08:06;94643.41;;;7.35;82.28
12077;BME280;12420;42.676;23.262;2023-04-08T00:10:33;94668.19;;;7.29;83.02
12077;BME280;12420;42.676;23.262;2023-04-08T00:13:00;94614.47;;;7.00;83.47
12077;BME280;12420;42.676;23.262;2023-04-08T00:15:26;94641.44;;;7.18;84.27
12077;BME280;12420;42.676;23.262;2023-04-08T00:17:53;94626.22;;;7.01;84.23
12077;BME280;12420;42.676;23.262;2023-04-08T00:20:23;94632.91;;;7.22;84.83
12077;BME280;12420;42.676;23.262;2023-04-08T00:22:49;94633.69;;;7.23;85.39
12077;BME280;12420;42.676;23.262;2023-04-08T00:25:16;94637.19;;;7.23;85.78
12077;BME280;12420;42.676;23.262;2023-04-08T00:27:43;94629.69;;;7.18;86.07
12077;BME280;12420;42.676;23.262;2023-04-08T00:30:10;94633.94;;;7.19;86.62
12077;BME280;12420;42.676;23.262;2023-04-08T00:32:37;94635.94;;;7.18;86.41
12077;BME280;12420;42.676;23.262;2023-04-08T00:35:04;94626.72;;;7.10;86.22
12077;BME280;12420;42.676;23.262;2023-04-08T00:37:32;94622.00;;;6.88;87.10
12077;BME280;12420;42.676;23.262;2023-04-08T00:39:59;94587.47;;;6.82;86.87
12077;BME280;12420;42.676;23.262;2023-04-08T00:42:26;94581.25;;;6.70;87.65
12077;BME280;12420;42.676;23.262;2023-04-08T00:44:55;94621.72;;;6.98;86.75
12077;BME280;12420;42.676;23.262;2023-04-08T00:47:21;94634.97;;;6.99;87.47
12077;BME280;12420;42.676;23.262;2023-04-08T00:49:48;94642.97;;;6.97;87.50
12077;BME280;12420;42.676;23.262;2023-04-08T00:52:15;94651.25;;;6.91;87.45
12077;BME280;12420;42.676;23.262;2023-04-08T00:54:43;94619.00;;;6.81;87.19
12077;BME280;12420;42.676;23.262;2023-04-08T00:57:10;94642.00;;;7.00;87.41
12077;BME280;12420;42.676;23.262;2023-04-08T00:59:37;94625.47;;;6.94;87.55
12077;BME280;12420;42.676;23.262;2023-04-08T01:02:09;94630.00;;;6.86;87.01
12077;BME280;12420;42.676;23.262;2023-04-08T01:04:43;94645.72;;;7.08;86.78
12077;BME280;12420;42.676;23.262;2023-04-08T01:07:17;94641.72;;;7.15;87.56
12077;BME280;12420;42.676;23.262;2023-04-08T01:09:50;94646.22;;;7.07;88.01
12077;BME280;12420;42.676;23.262;2023-04-08T01:12:21;94649.97;;;7.04;88.11
12077;BME280;12420;42.676;23.262;2023-04-08T01:14:55;94586.00;;;6.58;87.96
12077;BME280;12420;42.676;23.262;2023-04-08T01:17:22;94645.25;;;6.99;88.27
12077;BME280;12420;42.676;23.262;2023-04-08T01:19:50;94667.47;;;7.12;88.39
12077;BME280;12420;42.676;23.262;2023-04-08T01:22:23;94616.75;;;6.79;87.66
12077;BME280;12420;42.676;23.262;2023-04-08T01:25:00;94649.72;;;7.13;86.89
12077;BME280;12420;42.676;23.262;2023-04-08T01:27:30;94640.97;;;7.03;86.92
12077;BME280;12420;42.676;23.262;2023-04-08T01:29:58;94626.25;;;6.95;88.27
12077;BME280;12420;42.676;23.262;2023-04-08T01:32:27;94621.47;;;6.84;88.88
12077;BME280;12420;42.676;23.262;2023-04-08T01:34:55;94645.47;;;7.06;87.23
12077;BME280;12420;42.676;23.262;2023-04-08T01:37:24;94650.75;;;7.10;86.72
12077;BME280;12420;42.676;23.262;2023-04-08T01:39:53;94655.44;;;7.26;86.32
12077;BME280;12420;42.676;23.262;2023-04-08T01:42:21;94617.41;;;7.19;83.61
12077;BME280;12420;42.676;23.262;2023-04-08T01:44:51;94617.94;;;7.12;82.21
12077;BME280;12420;42.676;23.262;2023-04-08T01:47:21;94651.69;;;7.29;82.56
12077;BME280;12420;42.676;23.262;2023-04-08T01:49:50;94667.94;;;7.27;82.84
12077;BME280;12420;42.676;23.262;2023-04-08T01:52:17;94664.44;;;7.27;82.70
12077;BME280;12420;42.676;23.262;2023-04-08T01:54:45;94619.25;;;6.83;83.03
12077;BME280;12420;42.676;23.262;2023-04-08T01:57:16;94658.47;;;7.17;83.98
12077;BME280;12420;42.676;23.262;2023-04-08T01:59:47;94657.25;;;6.95;84.29
12077;BME280;12420;42.676;23.262;2023-04-08T02:02:19;94678.28;;;6.87;84.86
12077;BME280;12420;42.676;23.262;2023-04-08T02:04:46;94592.03;;;6.34;85.25
12077;BME280;12420;42.676;23.262;2023-04-08T02:07:13;94628.03;;;6.53;85.87
12077;BME280;12420;42.676;23.262;2023-04-08T02:09:41;94676.28;;;6.82;86.06
12077;BME280;12420;42.676;23.262;2023-04-08T02:12:08;94686.78;;;6.78;86.15
12077;BME280;12420;42.676;23.262;2023-04-08T02:14:35;94668.53;;;6.75;87.11
12077;BME280;12420;42.676;23.262;2023-04-08T02:17:08;94634.75;;;6.41;86.79
12077;BME280;12420;42.676;23.262;2023-04-08T02:19:43;94645.25;;;6.53;87.36
12077;BME280;12420;42.676;23.262;2023-04-08T02:22:17;94672.75;;;6.76;86.42
12077;BME280;12420;42.676;23.262;2023-04-08T02:24:46;94678.78;;;6.74;86.94
12077;BME280;12420;42.676;23.262;2023-04-08T02:27:15;94680.00;;;6.73;86.96
12077;BME280;12420;42.676;23.262;2023-04-08T02:29:44;94667.50;;;6.56;88.07
12077;BME280;12420;42.676;23.262;2023-04-08T02:32:13;94630.53;;;6.45;86.93
12077;BME280;12420;42.676;23.262;2023-04-08T02:34:42;94642.25;;;6.35;87.75
12077;BME280;12420;42.676;23.262;2023-04-08T02:37:09;94691.78;;;6.51;88.10
12077;BME280;12420;42.676;23.262;2023-04-08T02:39:36;94643.00;;;6.29;87.77
12077;BME280;12420;42.676;23.262;2023-04-08T02:42:03;94692.53;;;6.58;87.57
12077;BME280;12420;42.676;23.262;2023-04-08T02:44:32;94680.78;;;6.63;86.58
12077;BME280;12420;42.676;23.262;2023-04-08T02:46:59;94661.78;;;6.59;86.46
12077;BME280;12420;42.676;23.262;2023-04-08T02:49:25;94618.28;;;6.24;86.30
12077;BME280;12420;42.676;23.262;2023-04-08T02:51:54;94675.25;;;6.68;86.88
12077;BME280;12420;42.676;23.262;2023-04-08T02:54:21;94665.53;;;6.62;86.86
12077;BME280;12420;42.676;23.262;2023-04-08T02:56:47;94605.75;;;6.12;86.93
12077;BME280;12420;42.676;23.262;2023-04-08T02:59:14;94657.25;;;6.50;86.83
12077;BME280;12420;42.676;23.262;2023-04-08T03:01:41;94652.25;;;6.32;87.81
12077;BME280;12420;42.676;23.262;2023-04-08T03:04:08;94683.53;;;6.57;88.23
12077;BME280;12420;42.676;23.262;2023-04-08T03:06:35;94680.03;;;6.57;87.93
12077;BME280;12420;42.676;23.262;2023-04-08T03:09:04;94683.53;;;6.57;88.28
12077;BME280;12420;42.676;23.262;2023-04-08T03:11:31;94670.53;;;6.58;87.72
12077;BME280;12420;42.676;23.262;2023-04-08T03:13:58;94674.53;;;6.57;87.87
12077;BME280;12420;42.676;23.262;2023-04-08T03:16:25;94680.75;;;6.46;88.88
12077;BME280;12420;42.676;23.262;2023-04-08T03:18:51;94683.53;;;6.51;88.43
12077;BME280;12420;42.676;23.262;2023-04-08T03:21:18;94668.00;;;6.48;88.28
12077;BME280;12420;42.676;23.262;2023-04-08T03:23:45;94634.25;;;6.20;88.97
12077;BME280;12420;42.676;23.262;2023-04-08T03:26:13;94660.03;;;6.39;89.28
12077;BME280;12420;42.676;23.262;2023-04-08T03:28:40;94654.00;;;6.29;89.76
12077;BME280;12420;42.676;23.262;2023-04-08T03:31:07;94667.00;;;6.40;89.71
12077;BME280;12420;42.676;23.262;2023-04-08T03:33:34;94678.00;;;6.46;89.55
12077;BME280;12420;42.676;23.262;2023-04-08T03:36:01;94675.50;;;6.53;89.78
12077;BME280;12420;42.676;23.262;2023-04-08T03:38:27;94685.03;;;6.41;90.04
12077;BME280;12420;42.676;23.262;2023-04-08T03:40:54;94581.47;;;5.87;89.65
12077;BME280;12420;42.676;23.262;2023-04-08T03:43:22;94671.25;;;6.52;89.42
12077;BME280;12420;42.676;23.262;2023-04-08T03:45:50;94667.03;;;6.57;88.84
12077;BME280;12420;42.676;23.262;2023-04-08T03:48:17;94686.03;;;6.78;88.50
12077;BME280;12420;42.676;23.262;2023-04-08T03:50:43;94662.78;;;6.62;87.51
12077;BME280;12420;42.676;23.262;2023-04-08T03:53:10;94667.78;;;6.80;87.42
12077;BME280;12420;42.676;23.262;2023-04-08T03:55:37;94688.28;;;6.90;87.80
12077;BME280;12420;42.676;23.262;2023-04-08T03:58:04;94664.00;;;6.83;87.19
12077;BME280;12420;42.676;23.262;2023-04-08T04:00:34;94680.50;;;6.89;87.84
12077;BME280;12420;42.676;23.262;2023-04-08T04:03:01;94676.00;;;6.91;88.17
12077;BME280;12420;42.676;23.262;2023-04-08T04:05:28;94647.28;;;6.70;88.59
12077;BME280;12420;42.676;23.262;2023-04-08T04:07:55;94684.00;;;6.84;89.14
12077;BME280;12420;42.676;23.262;2023-04-08T04:10:22;94670.28;;;6.67;89.55
12077;BME280;12420;42.676;23.262;2023-04-08T04:12:49;94667.53;;;6.67;89.54
12077;BME280;12420;42.676;23.262;2023-04-08T04:15:18;94700.25;;;6.82;89.61
12077;BME280;12420;42.676;23.262;2023-04-08T04:17:48;94605.28;;;6.24;89.64
12077;BME280;12420;42.676;23.262;2023-04-08T04:20:15;94685.00;;;6.64;90.27
12077;BME280;12420;42.676;23.262;2023-04-08T04:22:42;94548.97;;;5.75;88.61
12077;BME280;12420;42.676;23.262;2023-04-08T04:25:10;94647.25;;;6.53;89.01
12077;BME280;12420;42.676;23.262;2023-04-08T04:27:36;94666.78;;;6.72;88.07
12077;BME280;12420;42.676;23.262;2023-04-08T04:30:04;94673.75;;;6.39;87.92
12077;BME280;12420;42.676;23.262;2023-04-08T04:32:31;94693.53;;;6.88;88.53
12077;BME280;12420;42.676;23.262;2023-04-08T04:35:00;94652.75;;;6.53;88.84
12077;BME280;12420;42.676;23.262;2023-04-08T04:37:27;94573.47;;;5.84;88.09
12077;BME280;12420;42.676;23.262;2023-04-08T04:39:53;94626.25;;;6.22;88.43
12077;BME280;12420;42.676;23.262;2023-04-08T04:42:20;94690.78;;;6.83;88.71
12077;BME280;12420;42.676;23.262;2023-04-08T04:44:48;94640.50;;;6.48;88.21
12077;BME280;12420;42.676;23.262;2023-04-08T04:47:14;94699.03;;;6.83;89.07
12077;BME280;12420;42.676;23.262;2023-04-08T04:49:41;94668.03;;;6.65;88.59
12077;BME280;12420;42.676;23.262;2023-04-08T04:52:12;94683.00;;;6.81;88.72
12077;BME280;12420;42.676;23.262;2023-04-08T04:54:39;94692.53;;;6.86;88.26
12077;BME280;12420;42.676;23.262;2023-04-08T04:57:05;94637.03;;;6.37;87.58
12077;BME280;12420;42.676;23.262;2023-04-08T04:59:32;94708.28;;;6.96;87.73
12077;BME280;12420;42.676;23.262;2023-04-08T05:02:00;94704.28;;;7.03;86.20
12077;BME280;12420;42.676;23.262;2023-04-08T05:04:27;94690.53;;;6.81;86.61
12077;BME280;12420;42.676;23.262;2023-04-08T05:06:54;94677.00;;;6.94;86.58
12077;BME280;12420;42.676;23.262;2023-04-08T05:09:22;94671.25;;;6.86;86.94
12077;BME280;12420;42.676;23.262;2023-04-08T05:11:48;94658.03;;;6.68;86.04
12077;BME280;12420;42.676;23.262;2023-04-08T05:14:15;94596.78;;;6.50;86.21
12077;BME280;12420;42.676;23.262;2023-04-08T05:16:42;94705.50;;;7.25;85.38
12077;BME280;12420;42.676;23.262;2023-04-08T05:19:09;94704.97;;;7.32;85.39
12077;BME280;12420;42.676;23.262;2023-04-08T05:21:36;94713.75;;;7.30;85.69
12077;BME280;12420;42.676;23.262;2023-04-08T05:24:03;94707.00;;;7.14;84.69
12077;BME280;12420;42.676;23.262;2023-04-08T05:26:31;94566.78;;;6.47;85.03
12077;BME280;12420;42.676;23.262;2023-04-08T05:28:58;94708.72;;;7.46;84.33
12077;BME280;12420;42.676;23.262;2023-04-08T05:31:25;94688.44;;;7.49;84.22
12077;BME280;12420;42.676;23.262;2023-04-08T05:33:52;94707.19;;;7.45;84.38
12077;BME280;12420;42.676;23.262;2023-04-08T05:36:19;94695.44;;;7.50;84.99
12077;BME280;12420;42.676;23.262;2023-04-08T05:38:46;94708.38;;;7.72;83.88
12077;BME280;12420;42.676;23.262;2023-04-08T05:41:13;94679.88;;;7.58;83.09
12077;BME280;12420;42.676;23.262;2023-04-08T05:43:41;94710.84;;;7.87;84.41
12077;BME280;12420;42.676;23.262;2023-04-08T05:46:08;94695.34;;;7.78;83.04
12077;BME280;12420;42.676;23.262;2023-04-08T05:48:36;94702.84;;;7.77;83.17
12077;BME280;12420;42.676;23.262;2023-04-08T05:51:03;94696.34;;;7.75;83.74
12077;BME280;12420;42.676;23.262;2023-04-08T05:53:31;94631.16;;;7.30;83.45
12077;BME280;12420;42.676;23.262;2023-04-08T05:55:57;94654.91;;;7.39;83.72
12077;BME280;12420;42.676;23.262;2023-04-08T05:58:24;94708.63;;;7.79;83.41
12077;BME280;12420;42.676;23.262;2023-04-08T06:00:53;94657.63;;;7.56;82.58
12077;BME280;12420;42.676;23.262;2023-04-08T06:03:23;94666.59;;;7.62;83.29
12077;BME280;12420;42.676;23.262;2023-04-08T06:05:50;94713.84;;;7.89;82.38
12077;BME280;12420;42.676;23.262;2023-04-08T06:08:17;94697.78;;;7.93;83.60
12077;BME280;12420;42.676;23.262;2023-04-08T06:10:48;94704.34;;;7.84;84.06
12077;BME280;12420;42.676;23.262;2023-04-08T06:13:15;94563.44;;;7.05;83.36
12077;BME280;12420;42.676;23.262;2023-04-08T06:15:42;94712.50;;;8.12;82.87
12077;BME280;12420;42.676;23.262;2023-04-08T06:18:11;94702.41;;;8.20;80.77
12077;BME280;12420;42.676;23.262;2023-04-08T06:20:37;94696.94;;;8.15;81.40
12077;BME280;12420;42.676;23.262;2023-04-08T06:23:05;94633.22;;;7.77;81.51
12077;BME280;12420;42.676;23.262;2023-04-08T06:25:31;94717.81;;;7.93;82.41
12077;BME280;12420;42.676;23.262;2023-04-08T06:27:59;94705.63;;;8.30;82.52
12077;BME280;12420;42.676;23.262;2023-04-08T06:30:25;94688.84;;;8.28;81.17
12077;BME280;12420;42.676;23.262;2023-04-08T06:32:52;94699.84;;;8.34;82.13
12077;BME280;12420;42.676;23.262;2023-04-08T06:35:21;94706.81;;;8.46;81.16
12077;BME280;12420;42.676;23.262;2023-04-08T06:37:47;94709.72;;;8.59;80.89
12077;BME280;12420;42.676;23.262;2023-04-08T06:40:14;94705.56;;;8.41;79.88
12077;BME280;12420;42.676;23.262;2023-04-08T06:42:41;94717.22;;;8.64;79.43
12077;BME280;12420;42.676;23.262;2023-04-08T06:45:09;94729.69;;;8.77;78.56
12077;BME280;12420;42.676;23.262;2023-04-08T06:47:36;94718.88;;;8.79;77.91
12077;BME280;12420;42.676;23.262;2023-04-08T06:50:04;94648.47;;;8.31;77.58
12077;BME280;12420;42.676;23.262;2023-04-08T06:52:33;94657.75;;;8.27;77.85
12077;BME280;12420;42.676;23.262;2023-04-08T06:55:00;94675.13;;;8.58;76.49
12077;BME280;12420;42.676;23.262;2023-04-08T06:57:26;94720.00;;;8.95;76.29
12077;BME280;12420;42.676;23.262;2023-04-08T06:59:53;94714.69;;;9.02;76.32
12077;BME280;12420;42.676;23.262;2023-04-08T07:02:20;94665.50;;;8.71;75.92
12077;BME280;12420;42.676;23.262;2023-04-08T07:04:48;94700.97;;;8.91;75.96
12077;BME280;12420;42.676;23.262;2023-04-08T07:07:14;94712.41;;;9.06;75.60
12077;BME280;12420;42.676;23.262;2023-04-08T07:09:47;94711.69;;;9.00;76.28
12077;BME280;12420;42.676;23.262;2023-04-08T07:12:14;94664.97;;;8.36;76.42
12077;BME280;12420;42.676;23.262;2023-04-08T07:14:41;94721.59;;;9.15;75.95
12077;BME280;12420;42.676;23.262;2023-04-08T07:17:11;94727.25;;;9.28;75.25
12077;BME280;12420;42.676;23.262;2023-04-08T07:19:39;94719.31;;;9.19;74.95
12077;BME280;12420;42.676;23.262;2023-04-08T07:22:06;94686.56;;;9.04;75.04
12077;BME280;12420;42.676;23.262;2023-04-08T07:24:34;94732.69;;;9.39;74.84
12077;BME280;12420;42.676;23.262;2023-04-08T07:27:02;94736.09;;;9.51;75.27
12077;BME280;12420;42.676;23.262;2023-04-08T07:29:29;94738.59;;;9.54;74.87
12077;BME280;12420;42.676;23.262;2023-04-08T07:31:57;94730.28;;;9.54;73.23
12077;BME280;12420;42.676;23.262;2023-04-08T07:34:26;94744.03;;;9.60;73.59
12077;BME280;12420;42.676;23.262;2023-04-08T07:36:52;94736.16;;;9.70;74.00
12077;BME280;12420;42.676;23.262;2023-04-08T07:39:23;94735.75;;;9.85;73.83
12077;BME280;12420;42.676;23.262;2023-04-08T07:41:51;94740.41;;;9.95;73.24
12077;BME280;12420;42.676;23.262;2023-04-08T07:44:30;94717.16;;;9.85;73.46
12077;BME280;12420;42.676;23.262;2023-04-08T07:46:56;94716.66;;;9.62;73.20
12077;BME280;12420;42.676;23.262;2023-04-08T07:49:23;94726.13;;;9.91;73.19
12077;BME280;12420;42.676;23.262;2023-04-08T07:51:50;94625.31;;;9.30;72.27
12077;BME280;12420;42.676;23.262;2023-04-08T07:54:18;94737.09;;;9.97;74.22
12077;BME280;12420;42.676;23.262;2023-04-08T07:56:45;94761.13;;;10.08;74.35
12077;BME280;12420;42.676;23.262;2023-04-08T07:59:12;94810.38;;;10.09;73.97
12077;BME280;12420;42.676;23.262;2023-04-08T08:01:40;94721.97;;;9.79;73.14
12077;BME280;12420;42.676;23.262;2023-04-08T08:04:11;94727.91;;;9.89;73.06
12077;BME280;12420;42.676;23.262;2023-04-08T08:06:38;94700.69;;;9.74;74.41
12077;BME280;12420;42.676;23.262;2023-04-08T08:09:04;94741.97;;;9.91;73.75
12077;BME280;12420;42.676;23.262;2023-04-08T08:11:32;94801.22;;;9.95;75.03
12077;BME280;12420;42.676;23.262;2023-04-08T08:14:01;94662.41;;;9.10;75.71
12077;BME280;12420;42.676;23.262;2023-04-08T08:16:29;94706.66;;;9.53;75.14
12077;BME280;12420;42.676;23.262;2023-04-08T08:18:57;94765.47;;;10.03;75.25
12077;BME280;12420;42.676;23.262;2023-04-08T08:21:25;94769.81;;;10.17;74.42
12077;BME280;12420;42.676;23.262;2023-04-08T08:23:53;94748.28;;;10.10;73.93
12077;BME280;12420;42.676;23.262;2023-04-08T08:26:21;94683.66;;;9.70;74.23
12077;BME280;12420;42.676;23.262;2023-04-08T08:28:49;94714.16;;;9.83;74.52
12077;BME280;12420;42.676;23.262;2023-04-08T08:31:18;94737.97;;;10.11;73.91
12077;BME280;12420;42.676;23.262;2023-04-08T08:33:45;94767.78;;;10.42;74.08
12077;BME280;12420;42.676;23.262;2023-04-08T08:36:13;94755.44;;;10.62;73.01
12077;BME280;12420;42.676;23.262;2023-04-08T08:38:40;94741.75;;;10.70;72.23
12077;BME280;12420;42.676;23.262;2023-04-08T08:41:07;94657.22;;;10.12;72.08
12077;BME280;12420;42.676;23.262;2023-04-08T08:43:34;94757.22;;;10.79;73.33
12077;BME280;12420;42.676;23.262;2023-04-08T08:46:01;94687.22;;;10.27;73.37
12077;BME280;12420;42.676;23.262;2023-04-08T08:48:30;94753.69;;;10.78;73.28
12077;BME280;12420;42.676;23.262;2023-04-08T08:50:57;94752.50;;;10.93;73.91
12077;BME280;12420;42.676;23.262;2023-04-08T08:53:29;94690.88;;;10.35;73.18
12077;BME280;12420;42.676;23.262;2023-04-08T08:55:56;94761.16;;;10.83;74.18
12077;BME280;12420;42.676;23.262;2023-04-08T08:58:25;94761.63;;;10.88;73.61
12077;BME280;12420;42.676;23.262;2023-04-08T09:00:52;94631.69;;;9.87;74.06
12077;BME280;12420;42.676;23.262;2023-04-08T09:03:20;94651.25;;;10.08;73.35
12077;BME280;12420;42.676;23.262;2023-04-08T09:05:50;94729.78;;;10.62;72.63
12077;BME280;12420;42.676;23.262;2023-04-08T09:08:30;94695.22;;;10.69;72.89
12077;BME280;12420;42.676;23.262;2023-04-08T09:11:10;94745.00;;;10.88;73.32
12077;BME280;12420;42.676;23.262;2023-04-08T09:13:38;94748.97;;;11.24;75.43
12077;BME280;12420;42.676;23.262;2023-04-08T09:16:15;94757.88;;;11.49;74.17
12077;BME280;12420;42.676;23.262;2023-04-08T09:18:44;94607.50;;;10.45;69.75
12077;BME280;12420;42.676;23.262;2023-04-08T09:21:12;94739.22;;;11.04;70.83
12077;BME280;12420;42.676;23.262;2023-04-08T09:23:43;94764.13;;;11.95;70.73
12077;BME280;12420;42.676;23.262;2023-04-08T09:26:12;94687.31;;;11.50;68.44
12077;BME280;12420;42.676;23.262;2023-04-08T09:28:41;94704.59;;;11.70;68.74
12077;BME280;12420;42.676;23.262;2023-04-08T09:31:18;94756.38;;;12.07;69.66
12077;BME280;12420;42.676;23.262;2023-04-08T09:33:46;94615.75;;;11.09;69.76
12077;BME280;12420;42.676;23.262;2023-04-08T09:36:47;94711.09;;;11.72;69.30
12077;BME280;12420;42.676;23.262;2023-04-08T09:39:17;94738.84;;;11.86;71.36
12077;BME280;12420;42.676;23.262;2023-04-08T09:41:46;94686.47;;;11.69;69.45
12077;BME280;12420;42.676;23.262;2023-04-08T09:44:18;94682.41;;;11.70;69.21
12077;BME280;12420;42.676;23.262;2023-04-08T09:46:53;94740.25;;;12.06;67.92
12077;BME280;12420;42.676;23.262;2023-04-08T09:49:25;94723.47;;;11.71;68.75
12077;BME280;12420;42.676;23.262;2023-04-08T09:51:58;94736.72;;;11.79;68.29
12077;BME280;12420;42.676;23.262;2023-04-08T09:54:38;94742.88;;;11.85;68.41
12077;BME280;12420;42.676;23.262;2023-04-08T09:57:09;94735.88;;;11.97;68.42
12077;BME280;12420;42.676;23.262;2023-04-08T09:59:55;94727.47;;;11.89;67.91
12077;BME280;12420;42.676;23.262;2023-04-08T10:02:31;94735.56;;;11.87;67.73
12077;BME280;12420;42.676;23.262;2023-04-08T10:05:03;94728.59;;;11.67;68.32
12077;BME280;12420;42.676;23.262;2023-04-08T10:07:31;94729.75;;;11.85;67.56
12077;BME280;12420;42.676;23.262;2023-04-08T10:10:00;94734.06;;;11.86;69.50
12077;BME280;12420;42.676;23.262;2023-04-08T10:12:27;94722.50;;;11.56;68.93
12077;BME280;12420;42.676;23.262;2023-04-08T10:15:26;94720.81;;;11.52;69.17
12077;BME280;12420;42.676;23.262;2023-04-08T10:17:54;94730.59;;;11.54;69.79
12077;BME280;12420;42.676;23.262;2023-04-08T10:20:40;94703.94;;;11.37;69.21
12077;BME280;12420;42.676;23.262;2023-04-08T10:23:10;94718.56;;;11.51;69.54
12077;BME280;12420;42.676;23.262;2023-04-08T10:25:41;94709.50;;;11.64;69.36
12077;BME280;12420;42.676;23.262;2023-04-08T10:28:25;94712.38;;;11.45;69.78
12077;BME280;12420;42.676;23.262;2023-04-08T10:30:53;94721.75;;;11.55;70.57
12077;BME280;12420;42.676;23.262;2023-04-08T10:33:22;94710.97;;;11.38;70.39
12077;BME280;12420;42.676;23.262;2023-04-08T10:35:54;94703.72;;;11.48;70.51
12077;BME280;12420;42.676;23.262;2023-04-08T10:38:23;94647.94;;;11.12;71.30
12077;BME280;12420;42.676;23.262;2023-04-08T10:40:54;94678.44;;;11.25;70.65
12077;BME280;12420;42.676;23.262;2023-04-08T10:43:21;94669.28;;;11.30;70.70
12077;BME280;12420;42.676;23.262;2023-04-08T10:46:04;94691.38;;;11.76;69.42
12077;BME280;12420;42.676;23.262;2023-04-08T10:48:32;94702.03;;;11.85;69.78
12077;BME280;12420;42.676;23.262;2023-04-08T10:51:00;94702.38;;;11.82;69.30
12077;BME280;12420;42.676;23.262;2023-04-08T10:53:30;94632.63;;;11.38;70.26
12077;BME280;12420;42.676;23.262;2023-04-08T10:56:04;94610.53;;;11.19;69.00
12077;BME280;12420;42.676;23.262;2023-04-08T10:58:32;94687.88;;;11.89;70.40
12077;BME280;12420;42.676;23.262;2023-04-08T11:01:05;94683.81;;;12.03;70.84
12077;BME280;12420;42.676;23.262;2023-04-08T11:03:34;94674.63;;;11.95;69.06
12077;BME280;12420;42.676;23.262;2023-04-08T11:06:02;94643.38;;;11.55;68.79
12077;BME280;12420;42.676;23.262;2023-04-08T11:08:32;94682.22;;;11.94;68.69
12077;BME280;12420;42.676;23.262;2023-04-08T11:11:00;94543.09;;;10.90;68.69
12077;BME280;12420;42.676;23.262;2023-04-08T11:13:27;94681.38;;;12.00;69.04
12077;BME280;12420;42.676;23.262;2023-04-08T11:15:54;94640.63;;;11.28;69.35
12077;BME280;12420;42.676;23.262;2023-04-08T11:18:23;94616.94;;;11.27;68.68
12077;BME280;12420;42.676;23.262;2023-04-08T11:20:52;94660.13;;;12.02;69.53
12077;BME280;12420;42.676;23.262;2023-04-08T11:23:19;94651.25;;;12.17;67.07
12077;BME280;12420;42.676;23.262;2023-04-08T11:25:47;94611.69;;;12.03;68.00
12077;BME280;12420;42.676;23.262;2023-04-08T11:28:15;94570.47;;;11.73;68.73
12077;BME280;12420;42.676;23.262;2023-04-08T11:30:43;94575.88;;;11.92;67.46
12077;BME280;12420;42.676;23.262;2023-04-08T11:33:11;94657.56;;;12.52;66.03
12077;BME280;12420;42.676;23.262;2023-04-08T11:35:41;94621.63;;;12.33;66.11
12077;BME280;12420;42.676;23.262;2023-04-08T11:38:09;94622.94;;;12.19;66.17
12077;BME280;12420;42.676;23.262;2023-04-08T11:40:36;94622.44;;;12.41;65.80
12077;BME280;12420;42.676;23.262;2023-04-08T11:43:08;94534.78;;;12.04;65.30
12077;BME280;12420;42.676;23.262;2023-04-08T11:45:37;94601.75;;;12.84;63.89
12077;BME280;12420;42.676;23.262;2023-04-08T11:48:10;94612.25;;;12.99;62.40
12077;BME280;12420;42.676;23.262;2023-04-08T11:50:38;94622.63;;;12.98;60.57
12077;BME280;12420;42.676;23.262;2023-04-08T11:53:17;94634.28;;;12.76;61.18
12077;BME280;12420;42.676;23.262;2023-04-08T11:55:45;94630.69;;;12.68;61.07
12077;BME280;12420;42.676;23.262;2023-04-08T11:58:13;94596.25;;;12.29;61.12
12077;BME280;12420;42.676;23.262;2023-04-08T12:00:42;94604.16;;;12.25;61.35
12077;BME280;12420;42.676;23.262;2023-04-08T12:03:10;94618.81;;;12.12;62.07
12077;BME280;12420;42.676;23.262;2023-04-08T12:05:37;94573.53;;;11.69;62.84
12077;BME280;12420;42.676;23.262;2023-04-08T12:08:04;94569.50;;;11.57;63.60
12077;BME280;12420;42.676;23.262;2023-04-08T12:10:32;94598.59;;;11.77;64.08
12077;BME280;12420;42.676;23.262;2023-04-08T12:12:59;94590.28;;;11.77;64.10
12077;BME280;12420;42.676;23.262;2023-04-08T12:15:26;94521.03;;;11.50;63.64
12077;BME280;12420;42.676;23.262;2023-04-08T12:17:53;94610.41;;;12.04;63.61
12077;BME280;12420;42.676;23.262;2023-04-08T12:20:20;94610.63;;;11.80;64.83
12077;BME280;12420;42.676;23.262;2023-04-08T12:22:49;94605.44;;;11.76;64.85
12077;BME280;12420;42.676;23.262;2023-04-08T12:25:15;94610.09;;;11.81;65.72
12077;BME280;12420;42.676;23.262;2023-04-08T12:27:44;94593.81;;;11.91;64.85
12077;BME280;12420;42.676;23.262;2023-04-08T12:30:12;94557.13;;;11.71;63.83
12077;BME280;12420;42.676;23.262;2023-04-08T12:32:38;94595.88;;;12.11;64.42
12077;BME280;12420;42.676;23.262;2023-04-08T12:35:08;94590.78;;;12.02;64.98
12077;BME280;12420;42.676;23.262;2023-04-08T12:37:35;94568.94;;;11.99;65.37
12077;BME280;12420;42.676;23.262;2023-04-08T12:40:06;94592.69;;;12.07;64.88
12077;BME280;12420;42.676;23.262;2023-04-08T12:42:33;94596.78;;;12.27;64.81
12077;BME280;12420;42.676;23.262;2023-04-08T12:45:01;94569.16;;;12.22;64.16
12077;BME280;12420;42.676;23.262;2023-04-08T12:47:28;94566.41;;;12.08;65.04
12077;BME280;12420;42.676;23.262;2023-04-08T12:49:55;94587.56;;;12.11;64.39
12077;BME280;12420;42.676;23.262;2023-04-08T12:52:21;94564.66;;;11.84;64.67
12077;BME280;12420;42.676;23.262;2023-04-08T12:54:48;94613.09;;;11.83;64.77
12077;BME280;12420;42.676;23.262;2023-04-08T12:57:15;94519.25;;;11.13;67.37
12077;BME280;12420;42.676;23.262;2023-04-08T12:59:42;94595.09;;;11.63;71.65
12077;BME280;12420;42.676;23.262;2023-04-08T13:02:10;94610.44;;;11.64;81.21
12077;BME280;12420;42.676;23.262;2023-04-08T13:04:37;94549.50;;;11.24;77.47